Time;durP1;ratioP1;P1;durP2;ratioP2;P2;SDS_P1;SDS_P2;PMS_P1;PMS_P2;Temp;Humidity;BMP_temperature;BMP_pressure;BME280_temperature;BME280_humidity;BME280_pressure;Samples;Min_cycle;Max_cycle;Signal;HPM_P1;HPM_P2
2022/01/24 11:12:23;;;;;;;4.97;3.80;;;;;;;;;;4798722;24;20260;-86
2022/01/24 11:15:28;;;;;;;3.83;3.43;;;;;;;;;;4749891;30;20218;-86
2022/01/24 11:18:33;;;;;;;4.83;3.73;;;;;;;;;;4740056;30;20210;-86
2022/01/24 11:21:38;;;;;;;6.73;3.67;;;;;;;;;;4742501;30;20231;-86
2022/01/24 11:24:51;;;;;;;4.53;3.47;;;;;;;;;;4732842;30;20191;-85
2022/01/24 11:27:56;;;;;;;5.20;4.07;;;;;;;;;;4725989;30;20215;-85
2022/01/24 11:31:06;;;;;;;6.80;4.37;;;;;;;;;;4716154;30;20235;-86
2022/01/24 11:34:19;;;;;;;3.53;2.80;;;;;;;;;;4715594;30;20195;-85
2022/01/24 11:37:36;;;;;;;3.73;2.63;;;;;;;;;;4719767;30;20214;-85
2022/01/24 11:40:47;;;;;;;3.13;2.80;;;;;;;;;;4714657;30;20231;-86
2022/01/24 11:43:55;;;;;;;3.77;2.90;;;;;;;;;;4714954;30;20215;-85
2022/01/24 11:46:59;;;;;;;2.50;2.00;;;;;;;;;;4725923;30;20200;-86
2022/01/24 11:50:39;;;;;;;2.13;1.50;;;;;;;;;;4723572;30;20553;-85
2022/01/24 11:53:45;;;;;;;3.73;1.90;;;;;;;;;;4746611;30;20199;-86
2022/01/24 11:57:16;;;;;;;3.33;2.23;;;;;;;;;;4714331;30;20208;-86
2022/01/24 12:00:27;;;;;;;2.63;1.70;;;;;;;;;;4722899;30;20202;-86
2022/01/24 12:03:34;;;;;;;2.40;2.07;;;;;;;;;;4730175;30;20226;-85
2022/01/24 12:07:16;;;;;;;2.47;2.13;;;;;;;;;;4732247;30;20647;-86
2022/01/24 12:10:21;;;;;;;2.07;1.87;;;;;;;;;;4717936;30;20549;-86
2022/01/24 12:13:35;;;;;;;3.13;2.10;;;;;;;;;;4719268;30;20199;-86
2022/01/24 12:16:44;;;;;;;3.60;2.40;;;;;;;;;;4728216;30;20203;-85
2022/01/24 12:19:48;;;;;;;5.17;2.33;;;;;;;;;;4731526;30;20255;-86
2022/01/24 12:22:52;;;;;;;2.63;2.20;;;;;;;;;;4726993;30;20223;-86
2022/01/24 12:26:02;;;;;;;2.90;2.43;;;;;;;;;;4738541;30;20207;-86
2022/01/24 12:29:22;;;;;;;4.10;3.33;;;;;;;;;;4732035;30;20211;-85
2022/01/24 12:32:27;;;;;;;5.23;2.97;;;;;;;;;;4724280;30;20239;-85
2022/01/24 12:35:31;;;;;;;3.70;2.80;;;;;;;;;;4714590;30;20187;-86
2022/01/24 12:38:42;;;;;;;4.10;2.90;;;;;;;;;;4740647;30;20199;-86
2022/01/24 12:41:51;;;;;;;4.07;2.77;;;;;;;;;;4741797;30;20235;-86
2022/01/24 12:48:19;;;;;;;3.47;2.57;;;;;;;;;;4732955;30;20199;-86
2022/01/24 12:51:24;;;;;;;3.47;2.40;;;;;;;;;;4724823;30;20711;-85
2022/01/24 12:54:37;;;;;;;4.10;3.10;;;;;;;;;;4722905;30;20203;-85
2022/01/24 12:57:42;;;;;;;3.23;2.60;;;;;;;;;;4732224;30;20203;-85
2022/01/24 13:00:47;;;;;;;2.93;2.60;;;;;;;;;;4733717;30;20234;-86
2022/01/24 13:04:02;;;;;;;4.03;2.30;;;;;;;;;;4715239;30;20236;-85
2022/01/24 13:07:09;;;;;;;4.40;2.93;;;;;;;;;;4728542;30;20215;-85
2022/01/24 13:10:16;;;;;;;2.53;2.30;;;;;;;;;;4731917;30;20211;-85
2022/01/24 13:13:20;;;;;;;2.90;2.33;;;;;;;;;;4731769;30;20203;-85
2022/01/24 13:23:53;;;;;;;4.17;2.57;;;;;;;;;;4715011;30;20223;-86
2022/01/24 13:27:05;;;;;;;3.37;2.60;;;;;;;;;;4731259;30;20219;-86
2022/01/24 13:30:22;;;;;;;2.33;2.13;;;;;;;;;;4731650;30;20195;-86
2022/01/24 13:33:29;;;;;;;2.43;2.07;;;;;;;;;;4723807;30;20192;-86
2022/01/24 13:36:34;;;;;;;3.47;2.27;;;;;;;;;;4717219;30;20680;-85
2022/01/24 13:39:38;;;;;;;2.50;2.20;;;;;;;;;;4717152;30;20528;-86
2022/01/24 13:42:42;;;;;;;2.40;2.17;;;;;;;;;;4719285;30;20207;-86
2022/01/24 13:45:46;;;;;;;3.20;2.30;;;;;;;;;;4717316;30;20199;-86
2022/01/24 13:48:57;;;;;;;4.10;2.00;;;;;;;;;;4728532;30;20203;-86
2022/01/24 13:52:07;;;;;;;2.67;2.47;;;;;;;;;;4733684;30;20238;-86
2022/01/24 13:55:16;;;;;;;3.43;2.30;;;;;;;;;;4734390;30;20191;-86
2022/01/24 13:58:27;;;;;;;3.67;2.80;;;;;;;;;;4727194;30;20211;-86
2022/01/24 14:01:32;;;;;;;4.50;2.63;;;;;;;;;;4729489;30;20703;-86
2022/01/24 14:04:40;;;;;;;3.50;2.83;;;;;;;;;;4744025;30;20211;-86
2022/01/24 14:07:44;;;;;;;8.33;3.57;;;;;;;;;;4726610;30;20683;-86
2022/01/24 14:10:51;;;;;;;4.97;3.17;;;;;;;;;;4716867;30;20342;-86
2022/01/24 14:14:01;;;;;;;4.20;3.43;;;;;;;;;;4716416;30;20196;-85
2022/01/24 14:17:20;;;;;;;4.63;3.13;;;;;;;;;;4727354;30;20204;-86
2022/01/24 14:20:24;;;;;;;4.90;3.43;;;;;;;;;;4733642;30;20203;-86
2022/01/24 14:23:40;;;;;;;3.50;3.20;;;;;;;;;;4723603;30;20234;-86
2022/01/24 14:26:46;;;;;;;3.33;3.00;;;;;;;;;;4717477;30;20211;-86
2022/01/24 14:30:04;;;;;;;4.03;3.17;;;;;;;;;;4711023;30;20199;-86
2022/01/24 14:33:20;;;;;;;4.57;2.90;;;;;;;;;;4726272;30;20212;-86
2022/01/24 14:36:24;;;;;;;5.27;2.77;;;;;;;;;;4717770;30;20216;-86
2022/01/24 14:39:28;;;;;;;4.23;3.17;;;;;;;;;;4743613;30;20186;-86
2022/01/24 14:42:45;;;;;;;4.50;3.67;;;;;;;;;;4722995;30;20227;-86
2022/01/24 14:45:49;;;;;;;3.93;2.93;;;;;;;;;;4714472;30;20200;-86
2022/01/24 14:49:00;;;;;;;4.83;3.70;;;;;;;;;;4715968;30;20684;-86
2022/01/24 14:52:09;;;;;;;4.83;3.30;;;;;;;;;;4716052;30;20236;-86
2022/01/24 14:55:13;;;;;;;3.93;3.30;;;;;;;;;;4732529;30;20207;-86
2022/01/24 14:58:17;;;;;;;4.80;3.33;;;;;;;;;;4733408;30;20195;-86
2022/01/24 15:01:22;;;;;;;6.03;3.40;;;;;;;;;;4733178;30;20248;-86
2022/01/24 15:04:26;;;;;;;5.07;3.90;;;;;;;;;;4731621;30;20226;-86
2022/01/24 15:07:30;;;;;;;5.90;4.20;;;;;;;;;;4723230;30;20199;-86
2022/01/24 15:10:35;;;;;;;5.80;4.37;;;;;;;;;;4725069;30;20234;-86
2022/01/24 15:13:45;;;;;;;7.10;4.40;;;;;;;;;;4715275;30;20192;-86
2022/01/24 15:27:20;;;;;;;6.53;4.47;;;;;;;;;;4746458;30;20219;-86
2022/01/24 15:30:25;;;;;;;6.30;4.57;;;;;;;;;;4721749;30;20211;-86
2022/01/24 15:33:29;;;;;;;6.03;4.37;;;;;;;;;;4720863;30;20199;-86
2022/01/24 15:36:33;;;;;;;7.43;5.07;;;;;;;;;;4738428;30;20219;-85
2022/01/24 15:39:37;;;;;;;6.70;4.60;;;;;;;;;;4724186;30;20568;-85
2022/01/24 15:43:03;;;;;;;5.87;4.57;;;;;;;;;;4717038;30;20554;-85
2022/01/24 15:49:21;;;;;;;8.00;5.10;;;;;;;;;;4721492;30;20605;-85
2022/01/24 15:52:25;;;;;;;6.67;4.87;;;;;;;;;;4742558;30;20664;-85
2022/01/24 15:55:33;;;;;;;6.77;5.10;;;;;;;;;;4721382;30;20601;-86
2022/01/24 15:58:37;;;;;;;7.43;5.30;;;;;;;;;;4723078;30;20212;-86
2022/01/24 16:01:41;;;;;;;8.00;5.20;;;;;;;;;;4714899;30;20638;-86
2022/01/24 16:04:46;;;;;;;9.13;5.67;;;;;;;;;;4734609;30;20243;-86
2022/01/24 16:07:52;;;;;;;7.80;5.50;;;;;;;;;;4734905;30;20199;-86
2022/01/24 16:10:56;;;;;;;7.70;5.60;;;;;;;;;;4724778;30;20660;-85
2022/01/24 16:14:00;;;;;;;8.17;5.13;;;;;;;;;;4714834;30;20554;-85
2022/01/24 16:17:04;;;;;;;7.87;5.43;;;;;;;;;;4734707;30;20554;-85
2022/01/24 16:20:21;;;;;;;7.70;5.33;;;;;;;;;;4734471;30;20567;-85
2022/01/24 16:23:32;;;;;;;9.00;5.60;;;;;;;;;;4714986;30;20555;-85
2022/01/24 16:26:37;;;;;;;6.80;4.57;;;;;;;;;;4724586;30;20944;-85
2022/01/24 16:29:41;;;;;;;7.90;4.90;;;;;;;;;;4734530;30;20566;-85
2022/01/24 16:32:45;;;;;;;6.47;5.27;;;;;;;;;;4724475;30;20566;-86
2022/01/24 16:35:53;;;;;;;8.47;4.83;;;;;;;;;;4731551;30;21137;-86
2022/01/24 16:38:57;;;;;;;7.23;4.77;;;;;;;;;;4724069;30;20614;-86
2022/01/24 16:42:06;;;;;;;6.13;4.60;;;;;;;;;;4714163;30;20987;-86
2022/01/24 16:47:01;;;;;;;6.30;4.73;;;;;;;;;;4728394;30;20641;-86
2022/01/24 16:48:42;;;;;;;8.53;4.77;;;;;;;;;;4724548;30;20633;-86
2022/01/24 16:51:47;;;;;;;7.37;4.90;;;;;;;;;;4722052;30;20632;-86
2022/01/24 16:54:51;;;;;;;6.73;5.07;;;;;;;;;;4721256;30;20601;-86
2022/01/24 16:57:55;;;;;;;8.83;5.37;;;;;;;;;;4704362;30;20542;-86
2022/01/24 17:01:00;;;;;;;7.17;4.73;;;;;;;;;;4714512;30;20661;-86
2022/01/24 17:04:05;;;;;;;8.87;5.10;;;;;;;;;;4724160;30;20641;-86
2022/01/24 17:07:08;;;;;;;7.97;5.17;;;;;;;;;;4737678;30;20558;-86
2022/01/24 17:10:13;;;;;;;7.20;5.07;;;;;;;;;;4724713;30;20628;-86
2022/01/24 17:13:18;;;;;;;8.67;5.77;;;;;;;;;;4722627;30;20637;-88
2022/01/24 17:16:24;;;;;;;6.83;5.23;;;;;;;;;;4721306;30;20598;-89
2022/01/24 17:19:28;;;;;;;6.43;4.83;;;;;;;;;;4720656;30;20578;-90
2022/01/24 17:22:32;;;;;;;7.87;5.70;;;;;;;;;;4737020;30;20657;-89
2022/01/24 17:25:36;;;;;;;7.70;5.90;;;;;;;;;;4718916;30;20645;-89
2022/01/24 17:28:43;;;;;;;10.70;7.00;;;;;;;;;;4727906;30;20574;-91
2022/01/24 17:31:48;;;;;;;8.60;6.00;;;;;;;;;;4720368;30;20664;-90
2022/01/24 17:34:56;;;;;;;7.47;5.13;;;;;;;;;;4719471;30;20629;-89
2022/01/24 17:38:07;;;;;;;7.87;5.83;;;;;;;;;;4716338;30;21152;-89
2022/01/24 17:41:12;;;;;;;12.40;5.53;;;;;;;;;;4724704;30;20231;-89
2022/01/24 17:44:17;;;;;;;10.30;6.17;;;;;;;;;;4734428;30;20203;-89
2022/01/24 17:47:21;;;;;;;9.57;6.00;;;;;;;;;;4724613;30;20621;-89
2022/01/24 17:50:25;;;;;;;13.43;6.53;;;;;;;;;;4724142;30;20625;-88
2022/01/24 17:53:30;;;;;;;8.80;5.93;;;;;;;;;;4734410;30;20553;-90
2022/01/24 17:56:34;;;;;;;8.00;5.60;;;;;;;;;;4724790;30;20545;-89
2022/01/24 17:59:38;;;;;;;8.30;5.90;;;;;;;;;;4734537;30;20569;-89
2022/01/24 18:02:43;;;;;;;8.93;6.53;;;;;;;;;;4744082;30;20549;-89
2022/01/24 18:05:47;;;;;;;9.43;6.60;;;;;;;;;;4724006;30;20975;-89
2022/01/24 18:08:51;;;;;;;11.03;7.33;;;;;;;;;;4734145;30;20565;-89
2022/01/24 18:11:56;;;;;;;11.47;6.37;;;;;;;;;;4724348;30;20652;-88
2022/01/24 18:15:01;;;;;;;13.17;7.73;;;;;;;;;;4723833;30;20554;-89
2022/01/24 18:18:06;;;;;;;12.40;7.83;;;;;;;;;;4733687;30;20581;-88
2022/01/24 18:21:10;;;;;;;10.23;6.90;;;;;;;;;;4723605;30;20660;-88
2022/01/24 18:24:14;;;;;;;10.63;6.63;;;;;;;;;;4723855;30;20609;-89
2022/01/24 18:27:18;;;;;;;13.27;7.30;;;;;;;;;;4723082;30;20612;-89
2022/01/24 18:30:23;;;;;;;14.67;7.87;;;;;;;;;;4716184;30;20558;-88
2022/01/24 18:33:27;;;;;;;10.63;7.43;;;;;;;;;;4710988;30;20590;-89
2022/01/24 18:36:31;;;;;;;14.43;8.17;;;;;;;;;;4716520;30;20565;-88
2022/01/24 18:39:35;;;;;;;13.00;8.17;;;;;;;;;;4726122;30;20557;-88
2022/01/24 18:42:40;;;;;;;15.43;7.37;;;;;;;;;;4718495;30;20565;-88
2022/01/24 18:45:46;;;;;;;14.93;7.37;;;;;;;;;;4732601;30;20654;-89
2022/01/24 18:48:54;;;;;;;11.53;7.30;;;;;;;;;;4734283;30;20628;-89
2022/01/24 18:51:59;;;;;;;10.10;6.83;;;;;;;;;;4726000;30;20650;-89
2022/01/24 18:55:05;;;;;;;12.07;7.47;;;;;;;;;;4723258;30;20612;-89
2022/01/24 18:58:10;;;;;;;9.67;6.87;;;;;;;;;;4738792;30;20577;-88
2022/01/24 19:01:19;;;;;;;15.03;7.73;;;;;;;;;;4735093;30;20664;-85
2022/01/24 19:04:23;;;;;;;11.33;7.43;;;;;;;;;;4723078;30;20565;-86
2022/01/24 19:07:28;;;;;;;12.67;7.93;;;;;;;;;;4722827;30;20631;-86
2022/01/24 19:10:34;;;;;;;13.73;8.13;;;;;;;;;;4720287;30;20682;-86
2022/01/24 19:13:38;;;;;;;10.03;6.93;;;;;;;;;;4715448;30;21137;-86
2022/01/24 19:16:45;;;;;;;13.67;8.03;;;;;;;;;;4718198;30;20615;-86
2022/01/24 19:23:07;;;;;;;12.83;8.10;;;;;;;;;;4710290;30;20640;-86
2022/01/24 19:23:23;;;;;;;11.77;8.07;;;;;;;;;;4729575;30;21203;-86
2022/01/24 19:26:27;;;;;;;12.20;7.53;;;;;;;;;;4725756;30;21228;-85
2022/01/24 19:29:31;;;;;;;11.37;7.80;;;;;;;;;;4720548;30;20613;-86
2022/01/24 19:32:36;;;;;;;12.23;7.40;;;;;;;;;;4732274;30;20663;-85
2022/01/24 19:35:40;;;;;;;11.97;7.60;;;;;;;;;;4715437;30;20919;-86
2022/01/24 19:38:44;;;;;;;13.53;8.17;;;;;;;;;;4729876;30;20610;-87
2022/01/24 19:41:53;;;;;;;12.33;7.87;;;;;;;;;;4710495;30;20684;-85
2022/01/24 19:44:57;;;;;;;13.87;8.13;;;;;;;;;;4720997;30;20670;-85
2022/01/24 19:48:03;;;;;;;13.37;8.23;;;;;;;;;;4734258;30;20565;-88
2022/01/24 19:51:09;;;;;;;13.97;8.23;;;;;;;;;;4744501;30;20681;-86
2022/01/24 19:54:17;;;;;;;14.03;8.33;;;;;;;;;;4733778;30;20918;-86
2022/01/24 19:57:36;;;;;;;13.57;8.13;;;;;;;;;;4733170;30;20906;-88
2022/01/24 20:00:44;;;;;;;12.47;8.17;;;;;;;;;;4726742;30;20665;-88
2022/01/24 20:03:49;;;;;;;14.20;9.00;;;;;;;;;;4734002;30;20902;-85
2022/01/24 20:06:56;;;;;;;13.33;8.23;;;;;;;;;;4734007;30;20637;-85
2022/01/24 20:10:01;;;;;;;21.73;8.93;;;;;;;;;;4736397;30;20631;-88
2022/01/24 20:13:05;;;;;;;13.73;8.57;;;;;;;;;;4743288;30;20573;-88
2022/01/24 20:16:14;;;;;;;11.20;7.33;;;;;;;;;;4721507;30;20609;-85
2022/01/24 20:19:19;;;;;;;14.57;8.10;;;;;;;;;;4732076;30;20606;-85
2022/01/24 20:22:23;;;;;;;15.63;8.43;;;;;;;;;;4732415;30;20656;-85
2022/01/24 20:25:28;;;;;;;14.37;8.23;;;;;;;;;;4719414;30;20654;-85
2022/01/24 20:28:32;;;;;;;15.27;9.47;;;;;;;;;;4732727;30;20650;-85
2022/01/24 20:31:37;;;;;;;14.33;8.77;;;;;;;;;;4725719;30;21259;-85
2022/01/24 20:34:41;;;;;;;12.63;7.90;;;;;;;;;;4726890;30;20608;-85
2022/01/24 20:37:47;;;;;;;15.13;9.23;;;;;;;;;;4722266;30;20558;-85
2022/01/24 20:40:51;;;;;;;16.10;9.57;;;;;;;;;;4713015;30;20742;-88
2022/01/24 20:43:55;;;;;;;15.93;9.60;;;;;;;;;;4737512;30;21220;-89
2022/01/24 20:47:01;;;;;;;16.90;10.07;;;;;;;;;;4730350;30;20648;-85
2022/01/24 20:50:10;;;;;;;12.17;8.40;;;;;;;;;;4735304;30;20576;-86
2022/01/24 20:53:14;;;;;;;15.00;9.07;;;;;;;;;;4718202;30;20557;-89
2022/01/24 20:56:19;;;;;;;13.30;9.27;;;;;;;;;;4737822;30;20598;-88
2022/01/24 20:59:23;;;;;;;13.83;8.47;;;;;;;;;;4734818;30;20577;-88
2022/01/24 21:02:27;;;;;;;16.23;9.30;;;;;;;;;;4734636;30;21254;-89
2022/01/24 21:05:31;;;;;;;13.90;8.60;;;;;;;;;;4724699;30;20617;-89
2022/01/24 21:08:37;;;;;;;13.20;9.20;;;;;;;;;;4727425;30;20605;-88
2022/01/24 21:11:53;;;;;;;10.93;6.60;;;;;;;;;;4721229;30;20674;-86
2022/01/24 21:15:03;;;;;;;18.03;10.67;;;;;;;;;;4743846;30;20608;-89
2022/01/24 21:18:07;;;;;;;16.80;10.50;;;;;;;;;;4734617;30;20561;-86
2022/01/24 21:21:12;;;;;;;15.03;8.77;;;;;;;;;;4726724;30;20754;-88
2022/01/24 21:27:46;;;;;;;12.90;8.83;;;;;;;;;;4723932;30;20628;-85
2022/01/24 21:30:50;;;;;;;13.67;8.57;;;;;;;;;;4723039;30;20659;-85
2022/01/24 21:34:09;;;;;;;13.87;8.50;;;;;;;;;;4726185;30;20557;-87
2022/01/24 21:37:12;;;;;;;13.70;9.00;;;;;;;;;;4718194;30;20905;-88
2022/01/24 21:40:18;;;;;;;16.47;9.13;;;;;;;;;;4733490;30;20613;-88
2022/01/24 21:43:23;;;;;;;13.60;8.70;;;;;;;;;;4736808;30;21146;-88
2022/01/24 21:46:28;;;;;;;16.53;10.00;;;;;;;;;;4716689;30;20654;-88
2022/01/24 21:49:34;;;;;;;18.17;10.37;;;;;;;;;;4716778;30;20569;-88
2022/01/24 21:52:39;;;;;;;15.90;10.47;;;;;;;;;;4725385;30;20640;-89
2022/01/24 21:55:44;;;;;;;17.27;11.13;;;;;;;;;;4722417;30;20612;-88
2022/01/24 21:58:49;;;;;;;18.07;10.70;;;;;;;;;;4733650;30;20623;-88
2022/01/24 22:01:53;;;;;;;15.60;10.33;;;;;;;;;;4726960;30;20777;-88
2022/01/24 22:04:57;;;;;;;17.70;10.70;;;;;;;;;;4726199;30;20613;-88
2022/01/24 22:11:07;;;;;;;17.83;11.23;;;;;;;;;;4722192;30;21040;-88
2022/01/24 22:14:10;;;;;;;17.13;11.17;;;;;;;;;;4733247;30;20615;-88
2022/01/24 22:17:15;;;;;;;18.10;10.60;;;;;;;;;;4733710;30;20623;-88
2022/01/24 22:20:24;;;;;;;16.47;10.07;;;;;;;;;;4722928;30;20731;-87
2022/01/24 22:23:31;;;;;;;18.53;10.90;;;;;;;;;;4716512;30;20612;-89
2022/01/24 22:26:37;;;;;;;18.40;10.60;;;;;;;;;;4724050;30;21010;-88
2022/01/24 22:29:41;;;;;;;20.03;9.87;;;;;;;;;;4708091;30;20569;-85
2022/01/24 22:32:45;;;;;;;20.07;10.93;;;;;;;;;;4733287;30;20596;-85
2022/01/24 22:35:50;;;;;;;20.37;12.53;;;;;;;;;;4743403;30;20604;-85
2022/01/24 22:38:55;;;;;;;33.30;14.60;;;;;;;;;;4734225;30;20556;-85
2022/01/24 22:42:05;;;;;;;25.43;14.20;;;;;;;;;;4711869;30;20661;-85
2022/01/24 22:45:11;;;;;;;25.87;14.60;;;;;;;;;;4716176;30;20582;-85
2022/01/24 22:48:16;;;;;;;23.20;14.27;;;;;;;;;;4715822;30;20609;-88
2022/01/24 22:51:20;;;;;;;21.47;13.80;;;;;;;;;;4716797;30;20849;-85
2022/01/24 22:54:28;;;;;;;23.33;14.40;;;;;;;;;;4728772;30;20565;-85
2022/01/24 22:57:34;;;;;;;21.73;13.70;;;;;;;;;;4734358;30;20557;-85
2022/01/24 23:00:42;;;;;;;28.20;14.23;;;;;;;;;;4740485;30;20667;-88
2022/01/24 23:03:46;;;;;;;20.67;13.30;;;;;;;;;;4716510;30;20617;-85
2022/01/24 23:06:50;;;;;;;29.20;13.00;;;;;;;;;;4715955;30;20609;-85
2022/01/24 23:09:57;;;;;;;34.63;14.27;;;;;;;;;;4719212;30;20628;-88
2022/01/24 23:13:04;;;;;;;34.97;14.43;;;;;;;;;;4798680;24;20706;-89
2022/01/24 23:19:34;;;;;;;22.03;13.80;;;;;;;;;;4750755;30;20568;-89
2022/01/24 23:22:41;;;;;;;28.63;14.33;;;;;;;;;;4724252;30;20664;-89
2022/01/24 23:26:13;;;;;;;43.53;14.60;;;;;;;;;;4730776;30;20619;-89
2022/01/24 23:29:22;;;;;;;29.20;14.50;;;;;;;;;;4740440;30;20572;-89
2022/01/24 23:32:50;;;;;;;27.20;14.10;;;;;;;;;;4738557;30;21016;-89
2022/01/24 23:39:20;;;;;;;30.80;14.33;;;;;;;;;;4734677;30;20560;-89
2022/01/24 23:42:24;;;;;;;31.20;15.67;;;;;;;;;;4749661;30;20666;-89
2022/01/24 23:45:31;;;;;;;26.00;14.70;;;;;;;;;;4739831;30;20960;-89
2022/01/24 23:48:36;;;;;;;25.30;14.73;;;;;;;;;;4749768;30;20607;-88
2022/01/24 23:51:40;;;;;;;44.17;15.00;;;;;;;;;;4762001;30;21045;-89
2022/01/24 23:54:44;;;;;;;42.13;15.17;;;;;;;;;;4753554;30;20564;-89
2022/01/24 23:57:52;;;;;;;23.10;14.23;;;;;;;;;;4740064;30;20551;-89
